sensor_id;sensor_type;location;lat;lon;timestamp;pressure;altitude;pressure_sealevel;temperature;humidity
24762;BME280;12865;51.934;10.330;2023-05-01T00:00:27;99532.31;;;6.03;82.88
24762;BME280;12865;51.934;10.330;2023-05-01T00:03:13;99536.66;;;5.91;83.07
24762;BME280;12865;51.934;10.330;2023-05-01T00:06:01;99536.47;;;5.95;83.35
24762;BME280;12865;51.934;10.330;2023-05-01T00:08:47;99534.44;;;5.98;82.94
24762;BME280;12865;51.934;10.330;2023-05-01T00:11:34;99532.44;;;6.02;83.13
24762;BME280;12865;51.934;10.330;2023-05-01T00:14:20;99527.34;;;5.99;84.72
24762;BME280;12865;51.934;10.330;2023-05-01T00:17:06;99515.28;;;5.95;84.09
24762;BME280;12865;51.934;10.330;2023-05-01T00:19:53;99519.94;;;5.91;84.00
24762;BME280;12865;51.934;10.330;2023-05-01T00:22:38;99516.91;;;5.83;84.94
24762;BME280;12865;51.934;10.330;2023-05-01T00:25:24;99518.50;;;5.73;84.95
24762;BME280;12865;51.934;10.330;2023-05-01T00:28:10;99503.13;;;5.65;86.67
24762;BME280;12865;51.934;10.330;2023-05-01T00:30:56;99509.03;;;5.69;87.22
24762;BME280;12865;51.934;10.330;2023-05-01T00:33:42;99502.63;;;5.73;87.93
24762;BME280;12865;51.934;10.330;2023-05-01T00:36:27;99496.91;;;5.79;87.70
24762;BME280;12865;51.934;10.330;2023-05-01T00:39:13;99491.63;;;5.79;87.30
24762;BME280;12865;51.934;10.330;2023-05-01T00:41:59;99494.47;;;5.76;88.12
24762;BME280;12865;51.934;10.330;2023-05-01T00:44:45;99498.38;;;5.70;89.01
24762;BME280;12865;51.934;10.330;2023-05-01T00:47:31;99488.97;;;5.79;88.37
24762;BME280;12865;51.934;10.330;2023-05-01T00:50:17;99477.53;;;5.78;87.97
24762;BME280;12865;51.934;10.330;2023-05-01T00:53:03;99481.53;;;5.59;90.57
24762;BME280;12865;51.934;10.330;2023-05-01T00:55:50;99478.25;;;5.68;89.79
24762;BME280;12865;51.934;10.330;2023-05-01T00:58:35;99476.09;;;5.47;89.73
24762;BME280;12865;51.934;10.330;2023-05-01T01:01:22;99470.88;;;5.33;91.93
24762;BME280;12865;51.934;10.330;2023-05-01T01:04:08;99470.59;;;5.38;92.32
24762;BME280;12865;51.934;10.330;2023-05-01T01:07:00;99475.06;;;5.50;91.12
24762;BME280;12865;51.934;10.330;2023-05-01T01:13:19;99464.97;;;5.42;90.77
24762;BME280;12865;51.934;10.330;2023-05-01T01:16:45;99464.13;;;5.42;89.62
24762;BME280;12865;51.934;10.330;2023-05-01T01:22:22;99458.44;;;5.48;89.73
24762;BME280;12865;51.934;10.330;2023-05-01T01:25:31;99462.88;;;5.47;89.58
24762;BME280;12865;51.934;10.330;2023-05-01T01:31:20;99449.53;;;5.36;89.75
24762;BME280;12865;51.934;10.330;2023-05-01T01:34:17;99443.69;;;5.31;89.69
24762;BME280;12865;51.934;10.330;2023-05-01T01:37:11;99447.13;;;5.19;89.57
24762;BME280;12865;51.934;10.330;2023-05-01T01:40:04;99444.53;;;5.05;91.00
24762;BME280;12865;51.934;10.330;2023-05-01T01:42:56;99438.44;;;5.04;90.81
24762;BME280;12865;51.934;10.330;2023-05-01T01:45:46;99441.25;;;5.01;91.75
24762;BME280;12865;51.934;10.330;2023-05-01T01:48:37;99426.63;;;5.10;90.29
24762;BME280;12865;51.934;10.330;2023-05-01T01:51:23;99424.19;;;5.20;89.70
24762;BME280;12865;51.934;10.330;2023-05-01T01:54:10;99427.47;;;5.10;89.56
24762;BME280;12865;51.934;10.330;2023-05-01T01:57:00;99423.47;;;5.18;89.43
24762;BME280;12865;51.934;10.330;2023-05-01T01:59:47;99420.31;;;5.25;89.44
24762;BME280;12865;51.934;10.330;2023-05-01T02:02:35;99411.63;;;5.23;88.89
24762;BME280;12865;51.934;10.330;2023-05-01T02:05:24;99409.94;;;5.22;89.98
24762;BME280;12865;51.934;10.330;2023-05-01T02:08:12;99409.84;;;5.24;89.85
24762;BME280;12865;51.934;10.330;2023-05-01T02:10:59;99406.34;;;5.23;90.77
24762;BME280;12865;51.934;10.330;2023-05-01T02:13:46;99403.50;;;5.26;90.80
24762;BME280;12865;51.934;10.330;2023-05-01T02:16:34;99399.47;;;5.21;91.00
24762;BME280;12865;51.934;10.330;2023-05-01T02:19:21;99396.38;;;5.14;90.47
24762;BME280;12865;51.934;10.330;2023-05-01T02:22:07;99396.59;;;5.11;91.06
24762;BME280;12865;51.934;10.330;2023-05-01T02:24:55;99397.63;;;5.08;91.43
24762;BME280;12865;51.934;10.330;2023-05-01T02:27:46;99392.44;;;5.07;91.89
24762;BME280;12865;51.934;10.330;2023-05-01T02:30:32;99386.63;;;5.02;90.45
24762;BME280;12865;51.934;10.330;2023-05-01T02:33:18;99380.91;;;4.95;90.65
24762;BME280;12865;51.934;10.330;2023-05-01T02:38:33;99375.31;;;4.73;91.07
24762;BME280;12865;51.934;10.330;2023-05-01T02:41:20;99371.47;;;4.64;91.06
24762;BME280;12865;51.934;10.330;2023-05-01T02:44:08;99371.31;;;4.53;91.99
24762;BME280;12865;51.934;10.330;2023-05-01T02:46:56;99362.28;;;4.43;92.62
24762;BME280;12865;51.934;10.330;2023-05-01T02:49:44;99360.25;;;4.34;92.85
24762;BME280;12865;51.934;10.330;2023-05-01T02:52:33;99357.81;;;4.17;93.42
24762;BME280;12865;51.934;10.330;2023-05-01T02:55:19;99350.28;;;4.11;93.40
24762;BME280;12865;51.934;10.330;2023-05-01T02:58:05;99356.13;;;4.02;94.37
24762;BME280;12865;51.934;10.330;2023-05-01T03:00:51;99341.38;;;3.99;94.30
24762;BME280;12865;51.934;10.330;2023-05-01T03:03:37;99339.38;;;3.88;94.48
24762;BME280;12865;51.934;10.330;2023-05-01T03:06:22;99339.84;;;3.81;94.62
24762;BME280;12865;51.934;10.330;2023-05-01T03:09:08;99332.50;;;3.72;95.90
24762;BME280;12865;51.934;10.330;2023-05-01T03:11:54;99333.16;;;3.75;95.36
24762;BME280;12865;51.934;10.330;2023-05-01T03:14:40;99326.41;;;3.71;95.53
24762;BME280;12865;51.934;10.330;2023-05-01T03:17:25;99318.66;;;3.68;95.75
24762;BME280;12865;51.934;10.330;2023-05-01T03:20:11;99323.78;;;3.71;96.18
24762;BME280;12865;51.934;10.330;2023-05-01T03:22:57;99326.41;;;3.71;96.21
24762;BME280;12865;51.934;10.330;2023-05-01T03:25:43;99316.19;;;3.65;96.02
24762;BME280;12865;51.934;10.330;2023-05-01T03:28:29;99320.16;;;3.58;96.66
24762;BME280;12865;51.934;10.330;2023-05-01T03:31:15;99318.84;;;3.65;97.00
24762;BME280;12865;51.934;10.330;2023-05-01T03:34:00;99303.41;;;3.59;96.39
24762;BME280;12865;51.934;10.330;2023-05-01T03:36:46;99314.25;;;3.54;97.25
24762;BME280;12865;51.934;10.330;2023-05-01T03:39:31;99308.88;;;3.56;98.45
24762;BME280;12865;51.934;10.330;2023-05-01T03:42:17;99299.84;;;3.60;97.75
24762;BME280;12865;51.934;10.330;2023-05-01T03:45:03;99303.16;;;3.64;97.22
24762;BME280;12865;51.934;10.330;2023-05-01T03:47:49;99299.75;;;3.62;97.36
24762;BME280;12865;51.934;10.330;2023-05-01T03:50:35;99289.84;;;3.51;98.42
24762;BME280;12865;51.934;10.330;2023-05-01T03:53:21;99295.31;;;3.48;98.87
24762;BME280;12865;51.934;10.330;2023-05-01T03:56:06;99286.34;;;3.50;98.86
24762;BME280;12865;51.934;10.330;2023-05-01T03:58:52;99275.66;;;3.53;98.74
24762;BME280;12865;51.934;10.330;2023-05-01T04:01:38;99283.63;;;3.52;99.00
24762;BME280;12865;51.934;10.330;2023-05-01T04:04:24;99279.13;;;3.54;99.69
24762;BME280;12865;51.934;10.330;2023-05-01T04:07:11;99270.19;;;3.57;99.44
24762;BME280;12865;51.934;10.330;2023-05-01T04:09:57;99275.34;;;3.58;100.00
24762;BME280;12865;51.934;10.330;2023-05-01T04:12:43;99262.25;;;3.85;100.00
24762;BME280;12865;51.934;10.330;2023-05-01T04:15:29;99267.84;;;4.07;100.00
24762;BME280;12865;51.934;10.330;2023-05-01T04:18:14;99265.94;;;4.23;100.00
24762;BME280;12865;51.934;10.330;2023-05-01T04:21:00;99261.13;;;4.43;100.00
24762;BME280;12865;51.934;10.330;2023-05-01T04:23:45;99255.16;;;4.53;100.00
24762;BME280;12865;51.934;10.330;2023-05-01T04:26:31;99265.84;;;4.64;100.00
24762;BME280;12865;51.934;10.330;2023-05-01T04:29:17;99270.94;;;4.67;100.00
24762;BME280;12865;51.934;10.330;2023-05-01T04:32:02;99259.44;;;4.68;100.00
24762;BME280;12865;51.934;10.330;2023-05-01T04:34:48;99262.28;;;4.65;100.00
24762;BME280;12865;51.934;10.330;2023-05-01T04:37:34;99256.47;;;4.60;100.00
24762;BME280;12865;51.934;10.330;2023-05-01T04:40:20;99253.06;;;4.58;100.00
24762;BME280;12865;51.934;10.330;2023-05-01T04:43:06;99253.06;;;4.58;100.00
24762;BME280;12865;51.934;10.330;2023-05-01T04:45:53;99256.47;;;4.60;100.00
24762;BME280;12865;51.934;10.330;2023-05-01T04:48:38;99260.66;;;4.63;100.00
24762;BME280;12865;51.934;10.330;2023-05-01T04:51:25;99255.09;;;4.67;100.00
24762;BME280;12865;51.934;10.330;2023-05-01T04:54:12;99251.28;;;4.71;100.00
24762;BME280;12865;51.934;10.330;2023-05-01T04:56:58;99246.34;;;4.80;100.00
24762;BME280;12865;51.934;10.330;2023-05-01T04:59:43;99249.75;;;4.82;100.00
24762;BME280;12865;51.934;10.330;2023-05-01T05:02:29;99247.84;;;4.84;100.00
24762;BME280;12865;51.934;10.330;2023-05-01T05:05:15;99251.13;;;4.87;100.00
24762;BME280;12865;51.934;10.330;2023-05-01T05:08:00;99248.47;;;4.87;100.00
24762;BME280;12865;51.934;10.330;2023-05-01T05:10:47;99246.47;;;4.91;100.00
24762;BME280;12865;51.934;10.330;2023-05-01T05:13:33;99245.84;;;5.00;100.00
24762;BME280;12865;51.934;10.330;2023-05-01T05:16:18;99257.50;;;5.10;99.81
24762;BME280;12865;51.934;10.330;2023-05-01T05:19:04;99248.81;;;5.21;100.00
24762;BME280;12865;51.934;10.330;2023-05-01T05:21:49;99245.56;;;5.30;100.00
24762;BME280;12865;51.934;10.330;2023-05-01T05:24:35;99238.47;;;5.43;100.00
24762;BME280;12865;51.934;10.330;2023-05-01T05:27:21;99245.84;;;5.63;99.99
24762;BME280;12865;51.934;10.330;2023-05-01T05:30:07;99241.78;;;5.83;99.03
24762;BME280;12865;51.934;10.330;2023-05-01T05:32:53;99243.81;;;5.92;99.09
24762;BME280;12865;51.934;10.330;2023-05-01T05:35:39;99225.88;;;6.08;98.31
24762;BME280;12865;51.934;10.330;2023-05-01T05:38:25;99234.91;;;6.29;97.52
24762;BME280;12865;51.934;10.330;2023-05-01T05:41:11;99234.59;;;6.45;96.61
24762;BME280;12865;51.934;10.330;2023-05-01T05:43:56;99241.19;;;6.63;95.34
24762;BME280;12865;51.934;10.330;2023-05-01T05:46:42;99234.50;;;6.82;93.01
24762;BME280;12865;51.934;10.330;2023-05-01T05:49:28;99228.25;;;6.94;92.45
24762;BME280;12865;51.934;10.330;2023-05-01T05:52:13;99226.97;;;7.10;91.37
24762;BME280;12865;51.934;10.330;2023-05-01T05:54:59;99227.50;;;7.27;91.31
24762;BME280;12865;51.934;10.330;2023-05-01T05:57:45;99217.38;;;7.43;89.20
24762;BME280;12865;51.934;10.330;2023-05-01T06:00:31;99223.16;;;7.59;89.49
24762;BME280;12865;51.934;10.330;2023-05-01T06:03:16;99223.66;;;7.75;89.54
24762;BME280;12865;51.934;10.330;2023-05-01T06:06:02;99216.63;;;7.97;87.97
24762;BME280;12865;51.934;10.330;2023-05-01T06:08:48;99217.28;;;8.21;85.88
24762;BME280;12865;51.934;10.330;2023-05-01T06:11:34;99220.41;;;8.37;86.89
24762;BME280;12865;51.934;10.330;2023-05-01T06:14:20;99213.00;;;8.52;84.46
24762;BME280;12865;51.934;10.330;2023-05-01T06:17:07;99211.84;;;8.65;83.63
24762;BME280;12865;51.934;10.330;2023-05-01T06:19:52;99205.91;;;8.94;81.96
24762;BME280;12865;51.934;10.330;2023-05-01T06:22:38;99205.38;;;9.00;80.85
24762;BME280;12865;51.934;10.330;2023-05-01T06:25:24;99211.41;;;9.02;79.16
24762;BME280;12865;51.934;10.330;2023-05-01T06:28:09;99205.75;;;9.16;79.85
24762;BME280;12865;51.934;10.330;2023-05-01T06:30:55;99205.16;;;9.33;79.77
24762;BME280;12865;51.934;10.330;2023-05-01T06:33:41;99207.81;;;9.64;76.64
24762;BME280;12865;51.934;10.330;2023-05-01T06:36:26;99201.88;;;9.81;77.76
24762;BME280;12865;51.934;10.330;2023-05-01T06:39:12;99202.88;;;9.99;76.32
24762;BME280;12865;51.934;10.330;2023-05-01T06:41:58;99197.03;;;10.15;75.03
24762;BME280;12865;51.934;10.330;2023-05-01T06:44:43;99195.53;;;10.32;74.90
24762;BME280;12865;51.934;10.330;2023-05-01T06:47:29;99190.78;;;10.54;74.76
24762;BME280;12865;51.934;10.330;2023-05-01T06:50:15;99193.75;;;10.71;72.53
24762;BME280;12865;51.934;10.330;2023-05-01T06:53:01;99196.66;;;10.87;70.87
24762;BME280;12865;51.934;10.330;2023-05-01T06:55:47;99196.66;;;10.96;69.21
24762;BME280;12865;51.934;10.330;2023-05-01T06:58:33;99198.75;;;11.02;69.20
24762;BME280;12865;51.934;10.330;2023-05-01T07:01:18;99197.75;;;10.94;70.53
24762;BME280;12865;51.934;10.330;2023-05-01T07:04:04;99193.97;;;10.96;70.46
24762;BME280;12865;51.934;10.330;2023-05-01T07:06:50;99192.25;;;11.15;69.26
24762;BME280;12865;51.934;10.330;2023-05-01T07:09:35;99199.00;;;11.19;71.80
24762;BME280;12865;51.934;10.330;2023-05-01T07:12:21;99186.56;;;11.37;69.70
24762;BME280;12865;51.934;10.330;2023-05-01T07:15:08;99190.53;;;11.70;69.39
24762;BME280;12865;51.934;10.330;2023-05-01T07:17:54;99186.00;;;11.70;70.32
24762;BME280;12865;51.934;10.330;2023-05-01T07:20:40;99182.34;;;11.81;69.84
24762;BME280;12865;51.934;10.330;2023-05-01T07:23:26;99179.56;;;12.00;67.54
24762;BME280;12865;51.934;10.330;2023-05-01T07:26:12;99169.13;;;12.07;65.84
24762;BME280;12865;51.934;10.330;2023-05-01T07:28:57;99177.03;;;12.26;63.55
24762;BME280;12865;51.934;10.330;2023-05-01T07:31:44;99174.03;;;12.29;62.65
24762;BME280;12865;51.934;10.330;2023-05-01T07:34:30;99171.28;;;12.56;59.71
24762;BME280;12865;51.934;10.330;2023-05-01T07:37:16;99166.25;;;12.53;61.40
24762;BME280;12865;51.934;10.330;2023-05-01T07:40:03;99172.69;;;12.61;59.92
24762;BME280;12865;51.934;10.330;2023-05-01T07:42:49;99168.16;;;12.61;57.27
24762;BME280;12865;51.934;10.330;2023-05-01T07:45:35;99163.47;;;12.81;57.96
24762;BME280;12865;51.934;10.330;2023-05-01T07:48:21;99161.03;;;12.87;55.82
24762;BME280;12865;51.934;10.330;2023-05-01T07:51:06;99160.28;;;13.21;54.98
24762;BME280;12865;51.934;10.330;2023-05-01T07:53:52;99159.75;;;13.17;56.54
24762;BME280;12865;51.934;10.330;2023-05-01T07:56:38;99164.28;;;12.99;57.46
24762;BME280;12865;51.934;10.330;2023-05-01T07:59:24;99156.59;;;13.04;58.64
24762;BME280;12865;51.934;10.330;2023-05-01T08:02:10;99142.63;;;13.10;58.46
24762;BME280;12865;51.934;10.330;2023-05-01T08:04:58;99145.91;;;13.04;59.42
24762;BME280;12865;51.934;10.330;2023-05-01T08:07:44;99143.38;;;13.20;58.07
24762;BME280;12865;51.934;10.330;2023-05-01T08:10:29;99144.41;;;13.27;59.70
24762;BME280;12865;51.934;10.330;2023-05-01T08:13:15;99140.34;;;13.49;58.93
24762;BME280;12865;51.934;10.330;2023-05-01T08:16:02;99132.66;;;13.54;59.40
24762;BME280;12865;51.934;10.330;2023-05-01T08:18:47;99127.22;;;13.72;58.42
24762;BME280;12865;51.934;10.330;2023-05-01T08:21:33;99136.97;;;13.89;59.23
24762;BME280;12865;51.934;10.330;2023-05-01T08:24:19;99135.50;;;14.03;60.15
24762;BME280;12865;51.934;10.330;2023-05-01T08:27:05;99131.69;;;14.13;60.13
24762;BME280;12865;51.934;10.330;2023-05-01T08:29:50;99130.44;;;14.42;57.77
24762;BME280;12865;51.934;10.330;2023-05-01T08:32:36;99126.09;;;14.57;59.45
24762;BME280;12865;51.934;10.330;2023-05-01T08:35:22;99134.47;;;14.70;61.25
24762;BME280;12865;51.934;10.330;2023-05-01T08:38:07;99128.06;;;14.79;57.55
24762;BME280;12865;51.934;10.330;2023-05-01T08:40:53;99127.06;;;14.88;61.58
24762;BME280;12865;51.934;10.330;2023-05-01T08:43:41;99118.50;;;14.93;61.56
24762;BME280;12865;51.934;10.330;2023-05-01T08:46:37;99128.22;;;14.86;62.21
24762;BME280;12865;51.934;10.330;2023-05-01T08:49:31;99122.16;;;15.16;61.84
24762;BME280;12865;51.934;10.330;2023-05-01T08:52:19;99124.66;;;15.26;60.97
24762;BME280;12865;51.934;10.330;2023-05-01T08:55:12;99112.34;;;15.56;58.18
24762;BME280;12865;51.934;10.330;2023-05-01T08:57:58;99124.56;;;15.50;57.83
24762;BME280;12865;51.934;10.330;2023-05-01T09:00:45;99110.66;;;15.55;56.45
24762;BME280;12865;51.934;10.330;2023-05-01T09:03:31;99106.44;;;15.60;55.84
24762;BME280;12865;51.934;10.330;2023-05-01T09:06:18;99105.94;;;15.57;55.14
24762;BME280;12865;51.934;10.330;2023-05-01T09:09:05;99102.94;;;15.91;55.74
24762;BME280;12865;51.934;10.330;2023-05-01T09:11:50;99099.63;;;15.81;54.04
24762;BME280;12865;51.934;10.330;2023-05-01T09:14:36;99099.97;;;16.08;53.79
24762;BME280;12865;51.934;10.330;2023-05-01T09:17:23;99087.38;;;16.32;55.23
24762;BME280;12865;51.934;10.330;2023-05-01T09:20:09;99090.75;;;16.48;54.40
24762;BME280;12865;51.934;10.330;2023-05-01T09:22:55;99077.69;;;16.83;54.84
24762;BME280;12865;51.934;10.330;2023-05-01T09:25:44;99077.53;;;16.99;53.91
24762;BME280;12865;51.934;10.330;2023-05-01T09:28:44;99070.94;;;17.31;51.14
24762;BME280;12865;51.934;10.330;2023-05-01T09:31:30;99076.25;;;17.24;50.48
24762;BME280;12865;51.934;10.330;2023-05-01T09:34:20;99073.75;;;17.38;49.79
24762;BME280;12865;51.934;10.330;2023-05-01T09:37:06;99068.06;;;17.03;49.65
24762;BME280;12865;51.934;10.330;2023-05-01T09:40:07;99070.03;;;16.95;49.17
24762;BME280;12865;51.934;10.330;2023-05-01T09:42:53;99057.28;;;17.03;49.02
24762;BME280;12865;51.934;10.330;2023-05-01T09:45:41;99058.88;;;17.42;48.64
24762;BME280;12865;51.934;10.330;2023-05-01T09:48:27;99052.06;;;17.75;48.86
24762;BME280;12865;51.934;10.330;2023-05-01T09:51:27;99057.06;;;18.14;49.10
24762;BME280;12865;51.934;10.330;2023-05-01T09:54:18;99062.97;;;18.24;47.57
24762;BME280;12865;51.934;10.330;2023-05-01T09:57:04;99049.69;;;18.51;46.17
24762;BME280;12865;51.934;10.330;2023-05-01T10:00:03;99047.31;;;18.83;45.17
24762;BME280;12865;51.934;10.330;2023-05-01T10:02:53;99051.19;;;18.53;44.26
24762;BME280;12865;51.934;10.330;2023-05-01T10:05:42;99040.03;;;18.84;43.94
24762;BME280;12865;51.934;10.330;2023-05-01T10:08:46;99044.34;;;18.78;44.34
24762;BME280;12865;51.934;10.330;2023-05-01T10:11:58;99033.72;;;18.70;45.10
24762;BME280;12865;51.934;10.330;2023-05-01T10:14:50;99036.88;;;18.80;44.40
24762;BME280;12865;51.934;10.330;2023-05-01T10:17:37;99035.63;;;18.76;44.94
24762;BME280;12865;51.934;10.330;2023-05-01T10:20:23;99033.22;;;18.88;46.01
24762;BME280;12865;51.934;10.330;2023-05-01T10:23:09;99030.94;;;19.19;45.07
24762;BME280;12865;51.934;10.330;2023-05-01T10:25:55;99028.84;;;19.21;43.13
24762;BME280;12865;51.934;10.330;2023-05-01T10:28:45;99025.19;;;19.42;43.82
24762;BME280;12865;51.934;10.330;2023-05-01T10:31:31;99025.56;;;19.74;41.24
24762;BME280;12865;51.934;10.330;2023-05-01T10:34:18;99025.41;;;19.88;40.83
24762;BME280;12865;51.934;10.330;2023-05-01T10:37:12;99021.72;;;20.09;40.00
24762;BME280;12865;51.934;10.330;2023-05-01T10:41:03;99019.25;;;20.41;40.87
24762;BME280;12865;51.934;10.330;2023-05-01T10:43:30;99017.59;;;20.72;37.24
24762;BME280;12865;51.934;10.330;2023-05-01T10:49:03;99007.38;;;20.68;35.63
24762;BME280;12865;51.934;10.330;2023-05-01T10:51:58;99004.19;;;21.30;38.26
24762;BME280;12865;51.934;10.330;2023-05-01T10:54:48;99007.38;;;20.94;36.69
24762;BME280;12865;51.934;10.330;2023-05-01T10:57:41;98996.25;;;21.29;36.04
24762;BME280;12865;51.934;10.330;2023-05-01T11:00:27;98992.22;;;21.38;36.68
24762;BME280;12865;51.934;10.330;2023-05-01T11:06:07;98994.25;;;20.65;36.00
24762;BME280;12865;51.934;10.330;2023-05-01T11:08:53;98993.19;;;20.92;37.02
24762;BME280;12865;51.934;10.330;2023-05-01T11:17:47;98982.78;;;20.76;37.08
24762;BME280;12865;51.934;10.330;2023-05-01T11:23:22;98978.75;;;21.18;35.65
24762;BME280;12865;51.934;10.330;2023-05-01T11:26:09;98986.50;;;21.01;34.82
24762;BME280;12865;51.934;10.330;2023-05-01T11:28:59;98982.97;;;20.94;35.76
24762;BME280;12865;51.934;10.330;2023-05-01T11:31:47;98974.78;;;21.14;35.27
24762;BME280;12865;51.934;10.330;2023-05-01T11:34:35;98978.13;;;21.09;35.63
24762;BME280;12865;51.934;10.330;2023-05-01T11:37:41;98976.88;;;21.19;35.35
24762;BME280;12865;51.934;10.330;2023-05-01T11:40:32;98968.72;;;21.12;35.51
24762;BME280;12865;51.934;10.330;2023-05-01T11:43:18;98965.28;;;20.72;35.57
24762;BME280;12865;51.934;10.330;2023-05-01T11:46:05;98964.88;;;20.62;35.40
24762;BME280;12865;51.934;10.330;2023-05-01T11:48:50;98955.91;;;20.55;35.37
24762;BME280;12865;51.934;10.330;2023-05-01T11:51:36;98948.38;;;20.83;36.01
24762;BME280;12865;51.934;10.330;2023-05-01T11:54:22;98955.06;;;20.87;35.92
24762;BME280;12865;51.934;10.330;2023-05-01T11:57:08;98960.28;;;20.62;36.19
24762;BME280;12865;51.934;10.330;2023-05-01T11:59:54;98958.63;;;20.61;36.42
24762;BME280;12865;51.934;10.330;2023-05-01T12:02:53;98960.13;;;20.44;35.65
24762;BME280;12865;51.934;10.330;2023-05-01T12:05:41;98958.00;;;20.72;35.93
24762;BME280;12865;51.934;10.330;2023-05-01T12:08:27;98958.41;;;20.69;35.42
24762;BME280;12865;51.934;10.330;2023-05-01T12:11:13;98960.28;;;20.29;35.95
24762;BME280;12865;51.934;10.330;2023-05-01T12:13:59;98954.03;;;20.68;36.87
24762;BME280;12865;51.934;10.330;2023-05-01T12:16:45;98967.28;;;21.23;35.84
24762;BME280;12865;51.934;10.330;2023-05-01T12:19:31;98959.47;;;21.39;34.76
24762;BME280;12865;51.934;10.330;2023-05-01T12:22:17;98955.97;;;21.32;35.29
24762;BME280;12865;51.934;10.330;2023-05-01T12:25:04;98948.94;;;21.05;34.99
24762;BME280;12865;51.934;10.330;2023-05-01T12:27:50;98960.41;;;21.20;36.40
24762;BME280;12865;51.934;10.330;2023-05-01T12:30:36;98956.28;;;20.85;35.33
24762;BME280;12865;51.934;10.330;2023-05-01T12:33:22;98951.41;;;21.26;35.93
24762;BME280;12865;51.934;10.330;2023-05-01T12:36:08;98942.66;;;21.62;36.10
24762;BME280;12865;51.934;10.330;2023-05-01T12:39:08;98948.41;;;21.41;36.16
24762;BME280;12865;51.934;10.330;2023-05-01T12:41:54;98950.69;;;21.50;32.92
24762;BME280;12865;51.934;10.330;2023-05-01T12:44:41;98952.50;;;20.99;33.89
24762;BME280;12865;51.934;10.330;2023-05-01T12:47:35;98950.50;;;20.48;34.65
24762;BME280;12865;51.934;10.330;2023-05-01T12:50:21;98951.13;;;20.57;34.79
24762;BME280;12865;51.934;10.330;2023-05-01T12:53:08;98940.66;;;20.93;34.58
24762;BME280;12865;51.934;10.330;2023-05-01T12:55:55;98947.63;;;21.27;34.61
24762;BME280;12865;51.934;10.330;2023-05-01T12:58:42;98936.50;;;20.84;33.38
24762;BME280;12865;51.934;10.330;2023-05-01T13:01:27;98932.56;;;20.80;34.50
24762;BME280;12865;51.934;10.330;2023-05-01T13:04:20;98928.94;;;20.99;35.10
24762;BME280;12865;51.934;10.330;2023-05-01T13:07:17;98925.28;;;20.74;34.03
24762;BME280;12865;51.934;10.330;2023-05-01T13:10:03;98930.25;;;20.84;33.06
24762;BME280;12865;51.934;10.330;2023-05-01T13:12:50;98934.31;;;21.12;33.29
24762;BME280;12865;51.934;10.330;2023-05-01T13:15:36;98925.00;;;21.46;34.84
24762;BME280;12865;51.934;10.330;2023-05-01T13:18:22;98930.16;;;21.61;34.30
24762;BME280;12865;51.934;10.330;2023-05-01T13:21:09;98930.09;;;21.68;34.29
24762;BME280;12865;51.934;10.330;2023-05-01T13:23:57;98925.44;;;21.81;33.14
24762;BME280;12865;51.934;10.330;2023-05-01T13:26:43;98919.91;;;21.94;32.49
24762;BME280;12865;51.934;10.330;2023-05-01T13:29:29;98920.28;;;22.05;34.40
24762;BME280;12865;51.934;10.330;2023-05-01T13:32:16;98914.41;;;22.08;31.93
24762;BME280;12865;51.934;10.330;2023-05-01T13:35:02;98916.28;;;21.76;30.43
24762;BME280;12865;51.934;10.330;2023-05-01T13:37:48;98923.38;;;21.39;30.68
24762;BME280;12865;51.934;10.330;2023-05-01T13:40:33;98919.44;;;21.35;31.96
24762;BME280;12865;51.934;10.330;2023-05-01T13:43:19;98910.91;;;21.31;32.81
24762;BME280;12865;51.934;10.330;2023-05-01T13:46:06;98920.22;;;20.84;33.43
24762;BME280;12865;51.934;10.330;2023-05-01T13:48:52;98918.00;;;21.32;34.58
24762;BME280;12865;51.934;10.330;2023-05-01T13:51:42;98917.16;;;21.32;32.31
24762;BME280;12865;51.934;10.330;2023-05-01T13:54:29;98918.72;;;21.52;32.86
24762;BME280;12865;51.934;10.330;2023-05-01T13:57:14;98908.44;;;21.61;32.38
24762;BME280;12865;51.934;10.330;2023-05-01T14:00:01;98910.56;;;21.52;33.65
24762;BME280;12865;51.934;10.330;2023-05-01T14:02:48;98912.00;;;21.10;34.04
24762;BME280;12865;51.934;10.330;2023-05-01T14:05:35;98900.75;;;21.20;34.39
24762;BME280;12865;51.934;10.330;2023-05-01T14:08:24;98901.06;;;21.43;33.57
24762;BME280;12865;51.934;10.330;2023-05-01T14:11:13;98904.00;;;21.35;33.14
24762;BME280;12865;51.934;10.330;2023-05-01T14:13:59;98898.00;;;21.27;33.92
24762;BME280;12865;51.934;10.330;2023-05-01T14:16:46;98903.22;;;20.57;34.67
24762;BME280;12865;51.934;10.330;2023-05-01T14:19:32;98894.00;;;20.78;35.26
24762;BME280;12865;51.934;10.330;2023-05-01T14:22:18;98889.31;;;21.05;35.13
24762;BME280;12865;51.934;10.330;2023-05-01T14:25:05;98896.56;;;21.17;34.49
24762;BME280;12865;51.934;10.330;2023-05-01T14:27:52;98892.84;;;21.05;34.44
24762;BME280;12865;51.934;10.330;2023-05-01T14:30:38;98880.22;;;21.37;34.30
24762;BME280;12865;51.934;10.330;2023-05-01T14:33:25;98889.38;;;21.43;34.43
24762;BME280;12865;51.934;10.330;2023-05-01T14:36:11;98884.47;;;21.20;33.54
24762;BME280;12865;51.934;10.330;2023-05-01T14:39:01;98882.66;;;21.01;34.48
24762;BME280;12865;51.934;10.330;2023-05-01T14:41:48;98882.09;;;21.37;34.23
24762;BME280;12865;51.934;10.330;2023-05-01T14:44:38;98880.66;;;21.34;35.33
24762;BME280;12865;51.934;10.330;2023-05-01T14:47:24;98872.75;;;21.64;35.25
24762;BME280;12865;51.934;10.330;2023-05-01T14:50:11;98876.72;;;21.62;34.22
24762;BME280;12865;51.934;10.330;2023-05-01T14:53:00;98879.69;;;21.22;32.85
24762;BME280;12865;51.934;10.330;2023-05-01T14:55:49;98876.44;;;21.38;33.85
24762;BME280;12865;51.934;10.330;2023-05-01T14:58:35;98877.97;;;21.28;34.48
24762;BME280;12865;51.934;10.330;2023-05-01T15:01:21;98876.97;;;21.15;34.26
24762;BME280;12865;51.934;10.330;2023-05-01T15:04:07;98888.22;;;21.12;34.84